Bookmark and Share
Track history (hours):
 

Laprairie

Last reported at 2014-Apr-23 12:03 UTC. Time now 2014-Apr-24 03:54 UTC.
Position N 44°07' W 076°37'.

Length 22 m; draft 10 m.

Type: Tug. MMSI: 316005239.

NotesDate/timePositionNaut miles runAvg speedWind from/ knotsBaromVisibWave heightAir tempDewpointWater temp
2014-Apr-23 12:03N 44°07' W 076°37'510.1
2014-Apr-23 11:33N 44°11' W 076°35'5 4.6
2014-Apr-23 10:26N 44°14' W 076°29'0 0.0
2014-Apr-23 09:32N 44°14' W 076°29'0 0.0
2014-Apr-23 08:32N 44°14' W 076°29'0 0.0
2014-Apr-23 07:14N 44°14' W 076°29'0 0.0
2014-Apr-23 06:14N 44°14' W 076°29'0 0.0
2014-Apr-23 04:08N 44°14' W 076°29'0 0.0
2014-Apr-23 03:26N 44°14' W 076°29'0 0.0
2014-Apr-23 02:32N 44°14' W 076°29'0 0.0
2014-Apr-23 01:32N 44°14' W 076°29'0 0.0
2014-Apr-23 00:21N 44°14' W 076°29'5 5.9
2014-Apr-22 23:33N 44°14' W 076°22'76 7.5
2014-Apr-22 13:25N 44°58' W 074°55'4 3.1
2014-Apr-22 12:18N 44°59' W 074°50'3 3.5
2014-Apr-22 11:31N 44°59' W 074°46'5 5.2
2014-Apr-22 10:33N 45°01' W 074°40'16 1.0
2014-Apr-21 18:33N 45°10' W 074°21'9 8.9
2014-Apr-21 17:33N 45°14' W 074°09'7 7.5
2014-Apr-21 16:33N 45°15' W 073°59'5 4.8
2014-Apr-21 15:33N 45°19' W 073°55'7 7.2
2014-Apr-21 14:33N 45°24' W 073°47'7 6.7
2014-Apr-21 13:33N 45°24' W 073°38'5 4.8
2014-Apr-21 12:33N 45°25' W 073°31'5 4.9
2014-Apr-21 11:33N 45°30' W 073°31'4 3.5
2014-Apr-21 10:27N 45°33' W 073°31'0 0.0
2014-Apr-21 09:31N 45°33' W 073°31'0 0.0
2014-Apr-21 08:33N 45°33' W 073°31'0 0.0
2014-Apr-21 07:33N 45°33' W 073°31'0 0.0
2014-Apr-21 06:33N 45°33' W 073°31'0 0.0
2014-Apr-21 05:34N 45°33' W 073°31'0 0.0
2014-Apr-21 04:33N 45°33' W 073°31'0 0.0
2014-Apr-21 03:33N 45°33' W 073°31'0 0.0
2014-Apr-21 02:33N 45°33' W 073°31'0 0.0
2014-Apr-21 01:33N 45°33' W 073°31'0 0.0
2014-Apr-21 00:33N 45°33' W 073°31'0 0.0
2014-Apr-20 23:23N 45°33' W 073°31'0 0.0
2014-Apr-20 22:33N 45°33' W 073°31'0 0.0
2014-Apr-20 21:34N 45°33' W 073°31'0 0.0
2014-Apr-20 20:33N 45°33' W 073°31'0 0.0
2014-Apr-20 19:34N 45°33' W 073°31'0 0.0
2014-Apr-20 18:33N 45°33' W 073°31'0 0.0
2014-Apr-20 17:33N 45°33' W 073°31'0 0.0
2014-Apr-20 16:33N 45°33' W 073°31'0 0.0
2014-Apr-20 15:34N 45°33' W 073°31'0 0.0
2014-Apr-20 14:34N 45°33' W 073°31'0 0.0
2014-Apr-20 13:33N 45°33' W 073°31'0 0.0
2014-Apr-20 12:33N 45°33' W 073°31'0 0.0
2014-Apr-20 11:34N 45°33' W 073°31'0 0.0
2014-Apr-20 10:33N 45°33' W 073°31'0 0.0
2014-Apr-20 09:33N 45°33' W 073°31'0 0.0
2014-Apr-20 08:33N 45°33' W 073°31'0 0.0
2014-Apr-20 07:33N 45°33' W 073°31'0 0.0
2014-Apr-20 06:34N 45°33' W 073°31'0 0.0
2014-Apr-20 05:33N 45°33' W 073°31'0 0.0
2014-Apr-20 04:33N 45°33' W 073°31'0 0.0
2014-Apr-20 03:33N 45°33' W 073°31'0 0.0
2014-Apr-20 02:32N 45°33' W 073°31'0 0.0
2014-Apr-20 01:34N 45°33' W 073°31'0 0.0
2014-Apr-20 00:33N 45°33' W 073°31'0 0.0
2014-Apr-19 23:33N 45°33' W 073°31'0 0.0
2014-Apr-19 22:33N 45°33' W 073°31'0 0.0
2014-Apr-19 21:33N 45°33' W 073°31'0 0.0
2014-Apr-19 20:34N 45°33' W 073°31'0 0.0
2014-Apr-19 19:33N 45°33' W 073°31'0 0.0
2014-Apr-19 18:33N 45°33' W 073°31'0 0.0
2014-Apr-19 17:33N 45°33' W 073°31'0 0.0
2014-Apr-19 16:32N 45°33' W 073°31'0 0.0
2014-Apr-19 15:33N 45°33' W 073°31'0 0.0
2014-Apr-19 14:33N 45°33' W 073°31'0 0.0
2014-Apr-19 13:34N 45°33' W 073°31'0 0.0
2014-Apr-19 12:34N 45°33' W 073°31'0 0.0
2014-Apr-19 11:33N 45°33' W 073°31'0 0.0
2014-Apr-19 10:33N 45°33' W 073°31'0 0.0
2014-Apr-19 09:33N 45°33' W 073°31'0 0.0
2014-Apr-19 08:33N 45°33' W 073°31'0 0.0
2014-Apr-19 07:33N 45°33' W 073°31'0 0.0
2014-Apr-19 06:34N 45°33' W 073°31'0 0.0
2014-Apr-19 05:33N 45°33' W 073°31'0 0.0
2014-Apr-19 04:33N 45°33' W 073°31'0 0.0
2014-Apr-19 03:33N 45°33' W 073°31'0 0.0
2014-Apr-19 02:33N 45°33' W 073°31'0 0.0
2014-Apr-19 01:33N 45°33' W 073°31'0 0.0
2014-Apr-19 00:33N 45°33' W 073°31'0 0.0
2014-Apr-18 23:34N 45°33' W 073°31'0 0.0
2014-Apr-18 22:34N 45°33' W 073°31'0 0.0
2014-Apr-18 21:33N 45°33' W 073°31'0 0.0
2014-Apr-18 20:34N 45°33' W 073°31'0 0.0
2014-Apr-18 19:33N 45°33' W 073°31'0 0.0
2014-Apr-18 18:33N 45°33' W 073°31'0 0.0
2014-Apr-18 17:33N 45°33' W 073°31'0 0.0
2014-Apr-18 16:33N 45°33' W 073°31'0 0.0
2014-Apr-18 10:33N 45°33' W 073°31'0 0.0
2014-Apr-18 09:33N 45°33' W 073°31'0 0.0
2014-Apr-18 08:33N 45°33' W 073°31'0 0.0
2014-Apr-18 07:33N 45°33' W 073°31'0 0.0
2014-Apr-18 06:34N 45°33' W 073°31'0 0.0
2014-Apr-18 05:34N 45°33' W 073°31'0 0.0
2014-Apr-18 04:33N 45°33' W 073°31'0 0.0
2014-Apr-18 03:33N 45°33' W 073°31'0 0.0
2014-Apr-18 02:33N 45°33' W 073°31'0 0.0
2014-Apr-18 01:33N 45°33' W 073°31'0 0.0
2014-Apr-18 00:33N 45°33' W 073°31'0 0.0
2014-Apr-17 23:34N 45°33' W 073°31'0 0.0
2014-Apr-17 22:33N 45°33' W 073°31'0 0.0
2014-Apr-17 21:33N 45°33' W 073°31'0 0.0
2014-Apr-17 20:34N 45°33' W 073°31'0 0.0
2014-Apr-17 19:34N 45°33' W 073°31'0 0.0
2014-Apr-17 18:34N 45°33' W 073°31'0 0.0
2014-Apr-17 17:33N 45°33' W 073°31'0 0.0
2014-Apr-17 16:33N 45°33' W 073°31'0 0.0
2014-Apr-17 15:33N 45°33' W 073°31'0 0.0
2014-Apr-17 14:34N 45°33' W 073°31'0 0.0
2014-Apr-17 13:34N 45°33' W 073°31'0 0.0
2014-Apr-17 12:33N 45°33' W 073°31'0 0.0
2014-Apr-17 11:34N 45°33' W 073°31'0 0.0
2014-Apr-17 10:33N 45°33' W 073°31'0 0.0
2014-Apr-17 09:34N 45°33' W 073°31'0 0.0
2014-Apr-17 08:32N 45°33' W 073°31'0 0.0
2014-Apr-17 07:29N 45°33' W 073°31'0 0.0
2014-Apr-17 06:34N 45°33' W 073°31'0 0.0
2014-Apr-17 05:34N 45°33' W 073°31'0 0.0
2014-Apr-17 04:33N 45°33' W 073°31'0 0.0
2014-Apr-17 03:34N 45°33' W 073°31'0 0.0
2014-Apr-17 02:33N 45°33' W 073°31'0 0.0
2014-Apr-17 01:33N 45°33' W 073°31'0 0.0
2014-Apr-17 00:33N 45°33' W 073°31'0 0.0
2014-Apr-16 23:34N 45°33' W 073°31'0 0.0
2014-Apr-16 22:33N 45°33' W 073°31'0 0.0
2014-Apr-16 21:32N 45°33' W 073°31'0 0.0
2014-Apr-16 20:33N 45°33' W 073°31'0 0.0
2014-Apr-16 19:31N 45°33' W 073°31'0 0.0
2014-Apr-16 18:33N 45°33' W 073°31'0 0.0
2014-Apr-16 17:33N 45°33' W 073°31'0 0.0
2014-Apr-16 16:33N 45°33' W 073°31'0 0.0
2014-Apr-16 15:33N 45°33' W 073°31'0 0.0
2014-Apr-16 14:33N 45°33' W 073°31'0 0.0
2014-Apr-16 13:33N 45°33' W 073°31'0 0.0
2014-Apr-16 12:34N 45°33' W 073°31'0 0.0
2014-Apr-16 11:33N 45°33' W 073°31'0 0.0
2014-Apr-16 10:33N 45°33' W 073°31'0 0.0
2014-Apr-16 09:33N 45°33' W 073°31'0 0.0
2014-Apr-16 08:33N 45°33' W 073°31'0 0.0
2014-Apr-16 07:33N 45°33' W 073°31'0 0.0
2014-Apr-16 06:33N 45°33' W 073°31'0 0.0
2014-Apr-16 05:33N 45°33' W 073°31'0 0.0
2014-Apr-16 04:33N 45°33' W 073°31'0 0.0
2014-Apr-16 03:33N 45°33' W 073°31'0 0.0
2014-Apr-16 02:33N 45°33' W 073°31'0 0.0
2014-Apr-16 01:33N 45°33' W 073°31'0 0.0
2014-Apr-16 00:33N 45°33' W 073°31'0 0.0
2014-Apr-15 23:34N 45°33' W 073°31'0 0.0
2014-Apr-15 22:33N 45°33' W 073°31'0 0.0
2014-Apr-15 21:33N 45°33' W 073°31'0 0.0
2014-Apr-15 20:33N 45°33' W 073°31'0 0.0
2014-Apr-15 19:33N 45°33' W 073°31'0 0.0
2014-Apr-15 18:34N 45°33' W 073°31'0 0.0
2014-Apr-15 17:34N 45°33' W 073°31'0 0.0
2014-Apr-15 16:33N 45°33' W 073°31'0 0.0
2014-Apr-15 15:33N 45°33' W 073°31'0 0.0
2014-Apr-15 14:34N 45°33' W 073°31'0 0.0
2014-Apr-15 12:34N 45°33' W 073°31'0 0.0
2014-Apr-15 11:34N 45°33' W 073°31'0 0.0
2014-Apr-15 10:34N 45°33' W 073°31'0 0.0
2014-Apr-15 09:34N 45°33' W 073°31'0 0.0
2014-Apr-15 08:34N 45°33' W 073°31'0 0.0
2014-Apr-15 07:34N 45°33' W 073°31'0 0.0
2014-Apr-15 06:34N 45°33' W 073°31'0 0.0
2014-Apr-15 05:34N 45°33' W 073°31'0 0.0
2014-Apr-15 03:34N 45°33' W 073°31'0 0.0
2014-Apr-15 02:34N 45°33' W 073°31'0 0.0
2014-Apr-15 01:34N 45°33' W 073°31'0 0.0
2014-Apr-15 00:34N 45°33' W 073°31'0 0.0
2014-Apr-14 23:34N 45°33' W 073°31'0 0.0
2014-Apr-14 22:33N 45°33' W 073°31'0 0.0
2014-Apr-14 21:34N 45°33' W 073°31'0 0.0
2014-Apr-14 20:34N 45°33' W 073°31'0 0.0
2014-Apr-14 19:34N 45°33' W 073°31'0 0.0
2014-Apr-14 18:34N 45°33' W 073°31'0 0.0
2014-Apr-14 17:34N 45°33' W 073°31'0 0.0
2014-Apr-14 16:34N 45°33' W 073°31'0 0.0
2014-Apr-14 15:34N 45°33' W 073°31'0 0.0
2014-Apr-14 14:34N 45°33' W 073°31'0 0.0
2014-Apr-14 13:34N 45°33' W 073°31'0 0.0
2014-Apr-14 11:33N 45°33' W 073°31'0 0.0
2014-Apr-14 10:33N 45°33' W 073°31'0 0.0
2014-Apr-14 09:33N 45°33' W 073°31'0 0.0
2014-Apr-14 08:33N 45°33' W 073°31'0 0.0
2014-Apr-14 07:33N 45°33' W 073°31'0 0.0
2014-Apr-14 06:33N 45°33' W 073°31'0 0.0
2014-Apr-14 05:33N 45°33' W 073°31'0 0.0
2014-Apr-13 22:33N 45°33' W 073°31'0 0.0
2014-Apr-13 21:33N 45°33' W 073°31'0 0.0
2014-Apr-13 20:33N 45°33' W 073°31'0 0.0
2014-Apr-13 19:33N 45°33' W 073°31'0 0.0
2014-Apr-13 18:33N 45°33' W 073°31'0 0.0
2014-Apr-13 17:33N 45°33' W 073°31'0 0.0
2014-Apr-13 16:33N 45°33' W 073°31'4 3.8
2014-Apr-13 15:33N 45°37' W 073°30'4 3.8
2014-Apr-13 14:33N 45°33' W 073°31'0 0.0
2014-Apr-13 13:33N 45°33' W 073°31'0 0.0
2014-Apr-13 12:34N 45°33' W 073°31'  

Dump ship's entire track history

sailing weather and tide predictions

Laprairie — VC9004 — position and weather